sensor_id;sensor_type;location;lat;lon;timestamp;temperature;humidity
66726;HTU21D;53638;51.062;5.804;2023-02-16T00:00:32;6.58;118.99
66726;HTU21D;53638;51.062;5.804;2023-02-16T00:03:02;6.58;118.99
66726;HTU21D;53638;51.062;5.804;2023-02-16T00:06:09;6.54;118.99
66726;HTU21D;53638;51.062;5.804;2023-02-16T00:09:19;6.53;118.99
66726;HTU21D;53638;51.062;5.804;2023-02-16T00:12:15;6.48;118.99
66726;HTU21D;53638;51.062;5.804;2023-02-16T00:15:17;6.45;118.99
66726;HTU21D;53638;51.062;5.804;2023-02-16T00:17:58;6.44;118.99
66726;HTU21D;53638;51.062;5.804;2023-02-16T00:20:31;6.41;118.99
66726;HTU21D;53638;51.062;5.804;2023-02-16T00:23:07;6.40;118.99
66726;HTU21D;53638;51.062;5.804;2023-02-16T00:25:40;6.41;118.99
66726;HTU21D;53638;51.062;5.804;2023-02-16T00:28:33;6.39;118.99
66726;HTU21D;53638;51.062;5.804;2023-02-16T00:31:05;6.37;118.99
66726;HTU21D;53638;51.062;5.804;2023-02-16T00:33:58;6.35;118.99
66726;HTU21D;53638;51.062;5.804;2023-02-16T00:36:45;6.33;118.99
66726;HTU21D;53638;51.062;5.804;2023-02-16T00:39:35;6.28;118.99
66726;HTU21D;53638;51.062;5.804;2023-02-16T00:42:30;6.26;118.99
66726;HTU21D;53638;51.062;5.804;2023-02-16T00:45:05;6.26;118.99
66726;HTU21D;53638;51.062;5.804;2023-02-16T00:48:05;6.23;118.99
66726;HTU21D;53638;51.062;5.804;2023-02-16T00:51:07;6.17;118.99
66726;HTU21D;53638;51.062;5.804;2023-02-16T00:53:48;6.14;118.99
66726;HTU21D;53638;51.062;5.804;2023-02-16T00:56:24;6.12;118.99
66726;HTU21D;53638;51.062;5.804;2023-02-16T01:02:38;6.08;118.99
66726;HTU21D;53638;51.062;5.804;2023-02-16T01:05:21;6.07;118.99
66726;HTU21D;53638;51.062;5.804;2023-02-16T01:08:14;6.08;118.99
66726;HTU21D;53638;51.062;5.804;2023-02-16T01:11:11;6.10;118.99
66726;HTU21D;53638;51.062;5.804;2023-02-16T01:14:33;6.08;118.99
66726;HTU21D;53638;51.062;5.804;2023-02-16T01:21:00;6.04;118.99
66726;HTU21D;53638;51.062;5.804;2023-02-16T01:23:47;6.01;118.99
66726;HTU21D;53638;51.062;5.804;2023-02-16T01:26:19;6.00;118.99
66726;HTU21D;53638;51.062;5.804;2023-02-16T01:29:56;5.95;118.99
66726;HTU21D;53638;51.062;5.804;2023-02-16T01:32:18;5.96;118.99
66726;HTU21D;53638;51.062;5.804;2023-02-16T01:35:45;5.91;118.99
66726;HTU21D;53638;51.062;5.804;2023-02-16T01:38:40;5.92;118.99
66726;HTU21D;53638;51.062;5.804;2023-02-16T01:42:31;5.89;118.99
66726;HTU21D;53638;51.062;5.804;2023-02-16T01:45:24;5.81;118.99
66726;HTU21D;53638;51.062;5.804;2023-02-16T01:48:37;5.75;118.99
66726;HTU21D;53638;51.062;5.804;2023-02-16T01:51:37;5.68;118.99
66726;HTU21D;53638;51.062;5.804;2023-02-16T01:54:54;5.63;118.99
66726;HTU21D;53638;51.062;5.804;2023-02-16T02:04:49;5.60;118.99
66726;HTU21D;53638;51.062;5.804;2023-02-16T02:11:38;5.59;118.99
66726;HTU21D;53638;51.062;5.804;2023-02-16T02:15:02;5.60;118.99
66726;HTU21D;53638;51.062;5.804;2023-02-16T02:18:42;5.59;118.99
66726;HTU21D;53638;51.062;5.804;2023-02-16T02:22:16;5.52;118.99
66726;HTU21D;53638;51.062;5.804;2023-02-16T02:26:06;5.52;118.99
66726;HTU21D;53638;51.062;5.804;2023-02-16T02:36:12;5.56;118.99
66726;HTU21D;53638;51.062;5.804;2023-02-16T02:39:33;5.56;118.99
66726;HTU21D;53638;51.062;5.804;2023-02-16T02:42:54;5.53;118.99
66726;HTU21D;53638;51.062;5.804;2023-02-16T02:46:00;5.55;118.99
66726;HTU21D;53638;51.062;5.804;2023-02-16T02:48:36;5.50;118.99
66726;HTU21D;53638;51.062;5.804;2023-02-16T02:54:38;5.47;118.99
66726;HTU21D;53638;51.062;5.804;2023-02-16T02:57:55;5.46;118.99
66726;HTU21D;53638;51.062;5.804;2023-02-16T03:01:08;5.43;118.99
66726;HTU21D;53638;51.062;5.804;2023-02-16T03:07:45;5.41;118.99
66726;HTU21D;53638;51.062;5.804;2023-02-16T03:11:29;5.36;118.99
66726;HTU21D;53638;51.062;5.804;2023-02-16T03:14:58;5.33;118.99
66726;HTU21D;53638;51.062;5.804;2023-02-16T03:18:15;5.32;118.99
66726;HTU21D;53638;51.062;5.804;2023-02-16T03:21:23;5.32;118.99
66726;HTU21D;53638;51.062;5.804;2023-02-16T03:24:32;5.33;118.99
66726;HTU21D;53638;51.062;5.804;2023-02-16T03:27:51;5.32;118.99
66726;HTU21D;53638;51.062;5.804;2023-02-16T03:31:03;5.32;118.99
66726;HTU21D;53638;51.062;5.804;2023-02-16T03:33:57;5.34;118.99
66726;HTU21D;53638;51.062;5.804;2023-02-16T03:37:00;5.33;118.99
66726;HTU21D;53638;51.062;5.804;2023-02-16T03:39:54;5.34;118.99
66726;HTU21D;53638;51.062;5.804;2023-02-16T03:42:52;5.35;118.99
66726;HTU21D;53638;51.062;5.804;2023-02-16T03:45:44;5.35;118.99
66726;HTU21D;53638;51.062;5.804;2023-02-16T03:49:18;5.34;118.99
66726;HTU21D;53638;51.062;5.804;2023-02-16T03:52:05;5.37;118.99
66726;HTU21D;53638;51.062;5.804;2023-02-16T03:54:53;5.39;118.99
66726;HTU21D;53638;51.062;5.804;2023-02-16T03:58:17;5.45;118.99
66726;HTU21D;53638;51.062;5.804;2023-02-16T04:01:16;5.45;118.99
66726;HTU21D;53638;51.062;5.804;2023-02-16T04:04:10;5.50;118.99
66726;HTU21D;53638;51.062;5.804;2023-02-16T04:07:21;5.48;118.99
66726;HTU21D;53638;51.062;5.804;2023-02-16T04:10:13;5.49;118.99
66726;HTU21D;53638;51.062;5.804;2023-02-16T04:12:44;5.51;118.99
66726;HTU21D;53638;51.062;5.804;2023-02-16T04:15:52;5.49;118.99
66726;HTU21D;53638;51.062;5.804;2023-02-16T04:18:28;5.50;118.99
66726;HTU21D;53638;51.062;5.804;2023-02-16T04:21:02;5.53;118.99
66726;HTU21D;53638;51.062;5.804;2023-02-16T04:24:31;5.53;118.99
66726;HTU21D;53638;51.062;5.804;2023-02-16T04:27:40;5.55;118.99
66726;HTU21D;53638;51.062;5.804;2023-02-16T04:30:36;5.54;118.99
66726;HTU21D;53638;51.062;5.804;2023-02-16T04:33:36;5.55;118.99
66726;HTU21D;53638;51.062;5.804;2023-02-16T04:36:06;5.56;118.99
66726;HTU21D;53638;51.062;5.804;2023-02-16T04:38:42;5.62;118.99
66726;HTU21D;53638;51.062;5.804;2023-02-16T04:41:18;5.64;118.99
66726;HTU21D;53638;51.062;5.804;2023-02-16T04:44:29;5.69;118.99
66726;HTU21D;53638;51.062;5.804;2023-02-16T04:47:02;5.82;118.99
66726;HTU21D;53638;51.062;5.804;2023-02-16T04:49:39;5.78;118.99
66726;HTU21D;53638;51.062;5.804;2023-02-16T04:52:16;5.76;118.99
66726;HTU21D;53638;51.062;5.804;2023-02-16T04:54:42;5.71;118.99
66726;HTU21D;53638;51.062;5.804;2023-02-16T05:00:23;5.62;118.99
66726;HTU21D;53638;51.062;5.804;2023-02-16T05:03:16;5.62;118.99
66726;HTU21D;53638;51.062;5.804;2023-02-16T05:06:25;5.53;118.99
66726;HTU21D;53638;51.062;5.804;2023-02-16T05:08:54;5.47;118.99
66726;HTU21D;53638;51.062;5.804;2023-02-16T05:11:26;5.49;118.99
66726;HTU21D;53638;51.062;5.804;2023-02-16T05:14:22;5.54;118.99
66726;HTU21D;53638;51.062;5.804;2023-02-16T05:17:09;5.61;118.99
66726;HTU21D;53638;51.062;5.804;2023-02-16T05:19:38;5.68;118.99
66726;HTU21D;53638;51.062;5.804;2023-02-16T05:22:05;5.75;118.99
66726;HTU21D;53638;51.062;5.804;2023-02-16T05:24:57;5.81;118.99
66726;HTU21D;53638;51.062;5.804;2023-02-16T05:27:29;5.86;118.99
66726;HTU21D;53638;51.062;5.804;2023-02-16T05:30:25;5.94;118.99
66726;HTU21D;53638;51.062;5.804;2023-02-16T05:32:57;5.97;118.99
66726;HTU21D;53638;51.062;5.804;2023-02-16T05:35:53;6.04;118.99
66726;HTU21D;53638;51.062;5.804;2023-02-16T05:38:28;6.08;118.99
66726;HTU21D;53638;51.062;5.804;2023-02-16T05:40:57;6.11;118.99
66726;HTU21D;53638;51.062;5.804;2023-02-16T05:43:26;6.12;118.99
66726;HTU21D;53638;51.062;5.804;2023-02-16T05:45:57;6.10;118.99
66726;HTU21D;53638;51.062;5.804;2023-02-16T05:48:44;6.12;118.99
66726;HTU21D;53638;51.062;5.804;2023-02-16T05:51:17;6.10;118.99
66726;HTU21D;53638;51.062;5.804;2023-02-16T05:53:46;6.10;118.99
66726;HTU21D;53638;51.062;5.804;2023-02-16T05:56:38;6.15;118.99
66726;HTU21D;53638;51.062;5.804;2023-02-16T05:59:29;6.21;118.99
66726;HTU21D;53638;51.062;5.804;2023-02-16T06:12:41;6.55;118.99
66726;HTU21D;53638;51.062;5.804;2023-02-16T06:15:07;6.63;118.99
66726;HTU21D;53638;51.062;5.804;2023-02-16T06:17:33;6.67;118.99
66726;HTU21D;53638;51.062;5.804;2023-02-16T06:19:59;6.72;118.99
66726;HTU21D;53638;51.062;5.804;2023-02-16T06:22:25;6.74;118.99
66726;HTU21D;53638;51.062;5.804;2023-02-16T06:24:51;6.78;118.99
66726;HTU21D;53638;51.062;5.804;2023-02-16T06:27:16;6.85;118.99
66726;HTU21D;53638;51.062;5.804;2023-02-16T06:29:42;6.86;118.99
66726;HTU21D;53638;51.062;5.804;2023-02-16T06:32:14;6.89;118.99
66726;HTU21D;53638;51.062;5.804;2023-02-16T06:35:11;6.89;118.99
66726;HTU21D;53638;51.062;5.804;2023-02-16T06:37:37;6.87;118.99
66726;HTU21D;53638;51.062;5.804;2023-02-16T06:40:04;6.89;118.99
66726;HTU21D;53638;51.062;5.804;2023-02-16T06:43:02;6.90;118.99
66726;HTU21D;53638;51.062;5.804;2023-02-16T06:45:46;6.90;118.99
66726;HTU21D;53638;51.062;5.804;2023-02-16T06:51:56;6.98;118.99
66726;HTU21D;53638;51.062;5.804;2023-02-16T06:55:05;7.02;118.99
66726;HTU21D;53638;51.062;5.804;2023-02-16T06:58:15;7.03;118.99
66726;HTU21D;53638;51.062;5.804;2023-02-16T07:01:13;7.01;118.99
66726;HTU21D;53638;51.062;5.804;2023-02-16T07:04:57;7.04;118.99
66726;HTU21D;53638;51.062;5.804;2023-02-16T07:07:07;7.09;118.99
66726;HTU21D;53638;51.062;5.804;2023-02-16T07:10:00;7.10;118.99
66726;HTU21D;53638;51.062;5.804;2023-02-16T07:12:41;7.11;118.99
66726;HTU21D;53638;51.062;5.804;2023-02-16T07:15:46;7.13;118.99
66726;HTU21D;53638;51.062;5.804;2023-02-16T07:18:23;7.13;118.99
66726;HTU21D;53638;51.062;5.804;2023-02-16T07:21:13;7.07;118.99
66726;HTU21D;53638;51.062;5.804;2023-02-16T07:24:03;7.07;118.99
66726;HTU21D;53638;51.062;5.804;2023-02-16T07:26:50;7.02;118.99
66726;HTU21D;53638;51.062;5.804;2023-02-16T07:29:54;7.08;118.99
66726;HTU21D;53638;51.062;5.804;2023-02-16T07:32:30;7.03;118.99
66726;HTU21D;53638;51.062;5.804;2023-02-16T07:35:51;7.04;118.99
66726;HTU21D;53638;51.062;5.804;2023-02-16T07:38:25;7.11;118.99
66726;HTU21D;53638;51.062;5.804;2023-02-16T07:40:53;7.14;118.99
66726;HTU21D;53638;51.062;5.804;2023-02-16T07:43:58;7.20;118.99
66726;HTU21D;53638;51.062;5.804;2023-02-16T07:46:33;7.26;118.99
66726;HTU21D;53638;51.062;5.804;2023-02-16T07:50:01;7.22;118.99
66726;HTU21D;53638;51.062;5.804;2023-02-16T07:52:40;7.17;118.99
66726;HTU21D;53638;51.062;5.804;2023-02-16T07:56:35;7.17;118.99
66726;HTU21D;53638;51.062;5.804;2023-02-16T07:58:36;7.28;118.99
66726;HTU21D;53638;51.062;5.804;2023-02-16T08:01:51;7.46;118.99
66726;HTU21D;53638;51.062;5.804;2023-02-16T08:04:23;7.62;118.99
66726;HTU21D;53638;51.062;5.804;2023-02-16T08:06:54;7.72;118.99
66726;HTU21D;53638;51.062;5.804;2023-02-16T08:09:59;7.84;118.99
66726;HTU21D;53638;51.062;5.804;2023-02-16T08:13:00;7.96;118.99
66726;HTU21D;53638;51.062;5.804;2023-02-16T08:15:26;8.06;118.99
66726;HTU21D;53638;51.062;5.804;2023-02-16T08:17:52;8.17;118.99
66726;HTU21D;53638;51.062;5.804;2023-02-16T08:20:18;8.24;118.99
66726;HTU21D;53638;51.062;5.804;2023-02-16T08:22:53;8.29;118.99
66726;HTU21D;53638;51.062;5.804;2023-02-16T08:25:23;8.36;118.99
66726;HTU21D;53638;51.062;5.804;2023-02-16T08:27:49;8.42;118.99
66726;HTU21D;53638;51.062;5.804;2023-02-16T08:30:15;8.48;118.99
66726;HTU21D;53638;51.062;5.804;2023-02-16T08:32:42;8.51;118.99
66726;HTU21D;53638;51.062;5.804;2023-02-16T08:35:36;8.57;118.99
66726;HTU21D;53638;51.062;5.804;2023-02-16T08:38:15;8.61;118.99
66726;HTU21D;53638;51.062;5.804;2023-02-16T08:40:46;8.62;118.99
66726;HTU21D;53638;51.062;5.804;2023-02-16T08:43:13;8.60;118.99
66726;HTU21D;53638;51.062;5.804;2023-02-16T08:45:45;8.61;118.99
66726;HTU21D;53638;51.062;5.804;2023-02-16T08:48:12;8.64;118.99
66726;HTU21D;53638;51.062;5.804;2023-02-16T08:50:56;8.72;118.99
66726;HTU21D;53638;51.062;5.804;2023-02-16T08:53:22;8.78;118.99
66726;HTU21D;53638;51.062;5.804;2023-02-16T08:55:58;8.88;118.99
66726;HTU21D;53638;51.062;5.804;2023-02-16T08:58:25;8.88;118.99
66726;HTU21D;53638;51.062;5.804;2023-02-16T09:00:51;9.00;118.99
66726;HTU21D;53638;51.062;5.804;2023-02-16T09:03:43;9.00;118.99
66726;HTU21D;53638;51.062;5.804;2023-02-16T09:06:22;8.98;118.99
66726;HTU21D;53638;51.062;5.804;2023-02-16T09:08:51;9.01;118.99
66726;HTU21D;53638;51.062;5.804;2023-02-16T09:11:18;9.09;118.99
66726;HTU21D;53638;51.062;5.804;2023-02-16T09:13:56;9.11;118.99
66726;HTU21D;53638;51.062;5.804;2023-02-16T09:16:24;9.23;118.99
66726;HTU21D;53638;51.062;5.804;2023-02-16T09:18:52;9.33;118.99
66726;HTU21D;53638;51.062;5.804;2023-02-16T09:21:21;9.38;118.99
66726;HTU21D;53638;51.062;5.804;2023-02-16T09:23:49;9.49;118.99
66726;HTU21D;53638;51.062;5.804;2023-02-16T09:26:16;9.55;118.99
66726;HTU21D;53638;51.062;5.804;2023-02-16T09:28:44;9.64;118.99
66726;HTU21D;53638;51.062;5.804;2023-02-16T09:31:15;9.64;118.99
66726;HTU21D;53638;51.062;5.804;2023-02-16T09:33:42;9.60;118.99
66726;HTU21D;53638;51.062;5.804;2023-02-16T09:36:11;9.63;118.99
66726;HTU21D;53638;51.062;5.804;2023-02-16T09:38:38;9.61;118.99
66726;HTU21D;53638;51.062;5.804;2023-02-16T09:41:07;9.54;118.99
66726;HTU21D;53638;51.062;5.804;2023-02-16T09:43:54;9.60;118.99
66726;HTU21D;53638;51.062;5.804;2023-02-16T09:46:24;9.61;118.99
66726;HTU21D;53638;51.062;5.804;2023-02-16T09:48:51;9.70;118.99
66726;HTU21D;53638;51.062;5.804;2023-02-16T09:51:24;9.65;118.99
66726;HTU21D;53638;51.062;5.804;2023-02-16T09:54:11;9.70;118.99
66726;HTU21D;53638;51.062;5.804;2023-02-16T09:56:50;9.79;118.99
66726;HTU21D;53638;51.062;5.804;2023-02-16T10:05:06;9.83;118.99
66726;HTU21D;53638;51.062;5.804;2023-02-16T10:07:58;9.90;118.99
66726;HTU21D;53638;51.062;5.804;2023-02-16T10:13:39;10.08;118.99
66726;HTU21D;53638;51.062;5.804;2023-02-16T10:16:14;10.14;118.99
66726;HTU21D;53638;51.062;5.804;2023-02-16T10:18:47;10.13;118.99
66726;HTU21D;53638;51.062;5.804;2023-02-16T10:21:20;10.11;118.99
66726;HTU21D;53638;51.062;5.804;2023-02-16T10:23:55;10.12;118.99
66726;HTU21D;53638;51.062;5.804;2023-02-16T10:26:32;10.18;118.99
66726;HTU21D;53638;51.062;5.804;2023-02-16T10:29:15;10.16;118.99
66726;HTU21D;53638;51.062;5.804;2023-02-16T10:34:34;10.19;118.99
66726;HTU21D;53638;51.062;5.804;2023-02-16T10:37:18;10.22;118.99
66726;HTU21D;53638;51.062;5.804;2023-02-16T10:40:04;10.30;118.99
66726;HTU21D;53638;51.062;5.804;2023-02-16T10:42:56;10.33;118.99
66726;HTU21D;53638;51.062;5.804;2023-02-16T10:45:30;10.31;118.99
66726;HTU21D;53638;51.062;5.804;2023-02-16T10:47:58;10.34;118.99
66726;HTU21D;53638;51.062;5.804;2023-02-16T10:50:38;10.37;118.99
66726;HTU21D;53638;51.062;5.804;2023-02-16T10:53:17;10.37;118.99
66726;HTU21D;53638;51.062;5.804;2023-02-16T10:55:44;10.37;118.99
66726;HTU21D;53638;51.062;5.804;2023-02-16T10:58:18;10.41;118.99
66726;HTU21D;53638;51.062;5.804;2023-02-16T11:01:06;10.42;118.99
66726;HTU21D;53638;51.062;5.804;2023-02-16T11:04:36;10.44;118.99
66726;HTU21D;53638;51.062;5.804;2023-02-16T11:07:16;10.52;118.99
66726;HTU21D;53638;51.062;5.804;2023-02-16T11:09:46;10.50;118.99
66726;HTU21D;53638;51.062;5.804;2023-02-16T11:14:48;10.38;118.99
66726;HTU21D;53638;51.062;5.804;2023-02-16T11:17:20;10.41;118.99
66726;HTU21D;53638;51.062;5.804;2023-02-16T11:22:47;10.42;118.99
66726;HTU21D;53638;51.062;5.804;2023-02-16T11:33:26;10.29;118.99
66726;HTU21D;53638;51.062;5.804;2023-02-16T11:35:54;10.22;118.99
66726;HTU21D;53638;51.062;5.804;2023-02-16T11:38:27;10.27;118.99
66726;HTU21D;53638;51.062;5.804;2023-02-16T11:40:55;10.35;118.99
66726;HTU21D;53638;51.062;5.804;2023-02-16T11:43:26;10.48;118.99
66726;HTU21D;53638;51.062;5.804;2023-02-16T11:45:58;10.57;118.99
66726;HTU21D;53638;51.062;5.804;2023-02-16T11:48:28;10.70;118.99
66726;HTU21D;53638;51.062;5.804;2023-02-16T11:50:57;10.69;118.99
66726;HTU21D;53638;51.062;5.804;2023-02-16T11:53:27;10.71;118.99
66726;HTU21D;53638;51.062;5.804;2023-02-16T11:56:11;10.82;118.99
66726;HTU21D;53638;51.062;5.804;2023-02-16T11:58:38;10.69;118.99
66726;HTU21D;53638;51.062;5.804;2023-02-16T12:01:23;10.72;118.99
66726;HTU21D;53638;51.062;5.804;2023-02-16T12:04:20;10.68;118.99
66726;HTU21D;53638;51.062;5.804;2023-02-16T12:09:41;10.77;118.99
66726;HTU21D;53638;51.062;5.804;2023-02-16T12:12:17;10.99;118.99
66726;HTU21D;53638;51.062;5.804;2023-02-16T12:15:11;11.22;118.99
66726;HTU21D;53638;51.062;5.804;2023-02-16T12:18:01;11.42;118.99
66726;HTU21D;53638;51.062;5.804;2023-02-16T12:23:40;11.57;118.99
66726;HTU21D;53638;51.062;5.804;2023-02-16T12:34:22;12.19;118.99
66726;HTU21D;53638;51.062;5.804;2023-02-16T13:30:31;14.37;118.99
66726;HTU21D;53638;51.062;5.804;2023-02-16T13:40:14;15.55;118.99
66726;HTU21D;53638;51.062;5.804;2023-02-16T13:45:53;15.74;118.96
66726;HTU21D;53638;51.062;5.804;2023-02-16T13:48:39;15.80;117.65
66726;HTU21D;53638;51.062;5.804;2023-02-16T13:51:49;15.71;116.84
66726;HTU21D;53638;51.062;5.804;2023-02-16T13:54:48;15.73;117.70
66726;HTU21D;53638;51.062;5.804;2023-02-16T14:00:54;15.85;116.41
66726;HTU21D;53638;51.062;5.804;2023-02-16T14:06:34;15.75;116.04
66726;HTU21D;53638;51.062;5.804;2023-02-16T14:14:57;15.81;115.21
66726;HTU21D;53638;51.062;5.804;2023-02-16T14:17:55;15.83;114.95
66726;HTU21D;53638;51.062;5.804;2023-02-16T14:21:01;15.93;114.20
66726;HTU21D;53638;51.062;5.804;2023-02-16T14:24:05;15.74;113.45
66726;HTU21D;53638;51.062;5.804;2023-02-16T14:27:09;15.59;114.56
66726;HTU21D;53638;51.062;5.804;2023-02-16T14:32:26;15.71;115.15
66726;HTU21D;53638;51.062;5.804;2023-02-16T14:35:41;15.86;114.19
66726;HTU21D;53638;51.062;5.804;2023-02-16T14:38:26;15.86;112.68
66726;HTU21D;53638;51.062;5.804;2023-02-16T14:40:55;15.95;112.80
66726;HTU21D;53638;51.062;5.804;2023-02-16T14:47:57;16.17;111.18
66726;HTU21D;53638;51.062;5.804;2023-02-16T14:53:40;16.14;110.60
66726;HTU21D;53638;51.062;5.804;2023-02-16T14:57:13;16.03;110.56
66726;HTU21D;53638;51.062;5.804;2023-02-16T15:03:21;16.11;110.23
66726;HTU21D;53638;51.062;5.804;2023-02-16T15:05:58;16.12;110.04
66726;HTU21D;53638;51.062;5.804;2023-02-16T15:08:28;16.17;109.94
66726;HTU21D;53638;51.062;5.804;2023-02-16T15:13:38;15.82;108.87
66726;HTU21D;53638;51.062;5.804;2023-02-16T15:16:05;15.49;109.11
66726;HTU21D;53638;51.062;5.804;2023-02-16T15:18:41;15.36;109.66
66726;HTU21D;53638;51.062;5.804;2023-02-16T15:21:22;15.36;109.85
66726;HTU21D;53638;51.062;5.804;2023-02-16T15:23:56;15.38;109.98
66726;HTU21D;53638;51.062;5.804;2023-02-16T15:26:25;15.32;109.76
66726;HTU21D;53638;51.062;5.804;2023-02-16T15:28:55;15.18;109.84
66726;HTU21D;53638;51.062;5.804;2023-02-16T15:31:30;15.13;110.06
66726;HTU21D;53638;51.062;5.804;2023-02-16T15:34:00;15.18;110.34
66726;HTU21D;53638;51.062;5.804;2023-02-16T15:36:34;15.30;110.05
66726;HTU21D;53638;51.062;5.804;2023-02-16T15:39:04;15.37;109.81
66726;HTU21D;53638;51.062;5.804;2023-02-16T15:41:33;15.36;109.52
66726;HTU21D;53638;51.062;5.804;2023-02-16T15:44:01;15.22;109.73
66726;HTU21D;53638;51.062;5.804;2023-02-16T15:46:32;15.14;109.97
66726;HTU21D;53638;51.062;5.804;2023-02-16T15:49:11;15.08;110.50
66726;HTU21D;53638;51.062;5.804;2023-02-16T15:51:39;14.98;110.37
66726;HTU21D;53638;51.062;5.804;2023-02-16T15:54:21;14.92;110.61
66726;HTU21D;53638;51.062;5.804;2023-02-16T15:56:52;14.86;110.85
66726;HTU21D;53638;51.062;5.804;2023-02-16T15:59:21;14.73;111.02
66726;HTU21D;53638;51.062;5.804;2023-02-16T16:01:57;14.69;111.26
66726;HTU21D;53638;51.062;5.804;2023-02-16T16:04:25;14.66;111.73
66726;HTU21D;53638;51.062;5.804;2023-02-16T16:06:53;14.54;111.45
66726;HTU21D;53638;51.062;5.804;2023-02-16T16:09:24;14.41;111.94
66726;HTU21D;53638;51.062;5.804;2023-02-16T16:11:54;14.35;112.41
66726;HTU21D;53638;51.062;5.804;2023-02-16T16:14:22;14.15;112.74
66726;HTU21D;53638;51.062;5.804;2023-02-16T16:16:49;13.86;113.51
66726;HTU21D;53638;51.062;5.804;2023-02-16T16:19:24;13.71;114.60
66726;HTU21D;53638;51.062;5.804;2023-02-16T16:21:54;13.70;115.12
66726;HTU21D;53638;51.062;5.804;2023-02-16T16:24:29;13.67;115.30
66726;HTU21D;53638;51.062;5.804;2023-02-16T16:27:01;13.68;115.60
66726;HTU21D;53638;51.062;5.804;2023-02-16T16:29:38;13.66;115.89
66726;HTU21D;53638;51.062;5.804;2023-02-16T16:32:19;13.58;116.13
66726;HTU21D;53638;51.062;5.804;2023-02-16T16:34:48;13.49;116.69
66726;HTU21D;53638;51.062;5.804;2023-02-16T16:37:28;13.40;117.21
66726;HTU21D;53638;51.062;5.804;2023-02-16T16:40:10;13.38;117.78
66726;HTU21D;53638;51.062;5.804;2023-02-16T16:45:34;13.36;118.24
66726;HTU21D;53638;51.062;5.804;2023-02-16T16:50:37;13.30;118.18
66726;HTU21D;53638;51.062;5.804;2023-02-16T16:55:56;13.04;118.99
66726;HTU21D;53638;51.062;5.804;2023-02-16T16:58:22;13.05;118.99
66726;HTU21D;53638;51.062;5.804;2023-02-16T17:00:48;13.07;118.99
66726;HTU21D;53638;51.062;5.804;2023-02-16T17:03:16;13.05;118.99
66726;HTU21D;53638;51.062;5.804;2023-02-16T17:05:42;13.03;118.99
66726;HTU21D;53638;51.062;5.804;2023-02-16T17:08:10;12.85;118.99
66726;HTU21D;53638;51.062;5.804;2023-02-16T17:10:39;12.90;118.99
66726;HTU21D;53638;51.062;5.804;2023-02-16T17:13:06;12.74;118.99
66726;HTU21D;53638;51.062;5.804;2023-02-16T17:18:05;12.40;118.99
66726;HTU21D;53638;51.062;5.804;2023-02-16T17:20:31;12.47;118.99
66726;HTU21D;53638;51.062;5.804;2023-02-16T17:22:57;12.29;118.99
66726;HTU21D;53638;51.062;5.804;2023-02-16T17:25:30;12.17;118.99
66726;HTU21D;53638;51.062;5.804;2023-02-16T17:27:56;11.94;118.99
66726;HTU21D;53638;51.062;5.804;2023-02-16T17:30:22;11.90;118.99
66726;HTU21D;53638;51.062;5.804;2023-02-16T17:32:48;11.88;118.99
66726;HTU21D;53638;51.062;5.804;2023-02-16T17:35:14;11.75;118.99
66726;HTU21D;53638;51.062;5.804;2023-02-16T17:37:40;11.89;118.99
66726;HTU21D;53638;51.062;5.804;2023-02-16T17:40:15;11.73;118.99
66726;HTU21D;53638;51.062;5.804;2023-02-16T17:42:45;11.83;118.99
66726;HTU21D;53638;51.062;5.804;2023-02-16T17:45:13;11.63;118.99
66726;HTU21D;53638;51.062;5.804;2023-02-16T17:47:42;11.63;118.99
66726;HTU21D;53638;51.062;5.804;2023-02-16T17:50:11;11.54;118.99
66726;HTU21D;53638;51.062;5.804;2023-02-16T17:52:37;11.36;118.99
66726;HTU21D;53638;51.062;5.804;2023-02-16T17:55:03;11.41;118.99
66726;HTU21D;53638;51.062;5.804;2023-02-16T17:57:29;11.38;118.99
66726;HTU21D;53638;51.062;5.804;2023-02-16T17:59:55;11.34;118.99
66726;HTU21D;53638;51.062;5.804;2023-02-16T18:02:21;11.31;118.99
66726;HTU21D;53638;51.062;5.804;2023-02-16T18:04:47;11.17;118.99
66726;HTU21D;53638;51.062;5.804;2023-02-16T18:07:14;11.09;118.99
66726;HTU21D;53638;51.062;5.804;2023-02-16T18:09:41;11.10;118.99
66726;HTU21D;53638;51.062;5.804;2023-02-16T18:12:07;10.88;118.99
66726;HTU21D;53638;51.062;5.804;2023-02-16T18:14:33;10.81;118.99
66726;HTU21D;53638;51.062;5.804;2023-02-16T18:17:01;10.78;118.99
66726;HTU21D;53638;51.062;5.804;2023-02-16T18:19:28;10.73;118.99
66726;HTU21D;53638;51.062;5.804;2023-02-16T18:21:55;10.75;118.99
66726;HTU21D;53638;51.062;5.804;2023-02-16T18:24:21;10.79;118.99
66726;HTU21D;53638;51.062;5.804;2023-02-16T18:26:47;10.75;118.99
66726;HTU21D;53638;51.062;5.804;2023-02-16T18:29:15;10.78;118.99
66726;HTU21D;53638;51.062;5.804;2023-02-16T18:31:42;10.83;118.99
66726;HTU21D;53638;51.062;5.804;2023-02-16T18:34:08;10.88;118.99
66726;HTU21D;53638;51.062;5.804;2023-02-16T18:36:35;10.89;118.99
66726;HTU21D;53638;51.062;5.804;2023-02-16T18:39:03;10.96;118.99
66726;HTU21D;53638;51.062;5.804;2023-02-16T18:41:29;10.98;118.99
66726;HTU21D;53638;51.062;5.804;2023-02-16T18:43:55;10.96;118.99
66726;HTU21D;53638;51.062;5.804;2023-02-16T18:46:21;11.00;118.99
66726;HTU21D;53638;51.062;5.804;2023-02-16T18:48:47;10.99;118.99
66726;HTU21D;53638;51.062;5.804;2023-02-16T18:51:14;11.01;118.99
66726;HTU21D;53638;51.062;5.804;2023-02-16T18:53:42;10.95;118.99
66726;HTU21D;53638;51.062;5.804;2023-02-16T18:56:10;10.94;118.99
66726;HTU21D;53638;51.062;5.804;2023-02-16T18:58:36;10.90;118.99
66726;HTU21D;53638;51.062;5.804;2023-02-16T19:01:14;10.83;118.99
66726;HTU21D;53638;51.062;5.804;2023-02-16T19:03:40;10.85;118.99
66726;HTU21D;53638;51.062;5.804;2023-02-16T19:06:06;10.88;118.99
66726;HTU21D;53638;51.062;5.804;2023-02-16T19:08:32;10.87;118.99
66726;HTU21D;53638;51.062;5.804;2023-02-16T19:11:01;10.88;118.99
66726;HTU21D;53638;51.062;5.804;2023-02-16T19:13:26;10.93;118.99
66726;HTU21D;53638;51.062;5.804;2023-02-16T19:15:52;10.97;118.99
66726;HTU21D;53638;51.062;5.804;2023-02-16T19:18:18;10.98;118.99
66726;HTU21D;53638;51.062;5.804;2023-02-16T19:20:44;10.98;118.99
66726;HTU21D;53638;51.062;5.804;2023-02-16T19:23:10;11.01;118.99
66726;HTU21D;53638;51.062;5.804;2023-02-16T19:25:36;10.97;118.99
66726;HTU21D;53638;51.062;5.804;2023-02-16T19:28:02;11.00;118.99
66726;HTU21D;53638;51.062;5.804;2023-02-16T19:30:28;11.03;118.99
66726;HTU21D;53638;51.062;5.804;2023-02-16T19:32:54;11.03;118.99
66726;HTU21D;53638;51.062;5.804;2023-02-16T19:35:20;11.04;118.99
66726;HTU21D;53638;51.062;5.804;2023-02-16T19:37:46;11.04;118.99
66726;HTU21D;53638;51.062;5.804;2023-02-16T19:40:12;11.05;118.99
66726;HTU21D;53638;51.062;5.804;2023-02-16T19:42:39;11.01;118.99
66726;HTU21D;53638;51.062;5.804;2023-02-16T19:45:05;11.05;118.99
66726;HTU21D;53638;51.062;5.804;2023-02-16T19:47:31;11.05;118.99